Time;durP1;ratioP1;P1;durP2;ratioP2;P2;SDS_P1;SDS_P2;PMS_P1;PMS_P2;Temp;Humidity;BMP_temperature;BMP_pressure;BME280_temperature;BME280_humidity;BME280_pressure;Samples;Min_cycle;Max_cycle;Signal;HPM_P1;HPM_P2
2022/01/01 00:00:05;;;;;;;;;57.25;44.50;;;;;12.35;79.79;102248.19;5036313;28;45223;-58
2022/01/01 00:02:30;;;;;;;;;43.00;38.50;;;;;12.33;79.50;102244.75;5036572;28;45302;-56
2022/01/01 00:04:56;;;;;;;;;60.00;44.00;;;;;12.32;79.73;102253.75;5036762;28;45323;-57
2022/01/01 00:07:21;;;;;;;;;63.00;43.00;;;;;12.24;80.15;102249.00;5036116;28;45469;-58
2022/01/01 00:09:47;;;;;;;;;60.50;40.75;;;;;12.06;79.82;102210.44;5036377;28;45472;-58
2022/01/01 00:12:12;;;;;;;;;56.50;41.75;;;;;12.17;80.25;102232.63;5036496;28;45313;-58
2022/01/01 00:14:38;;;;;;;;;54.75;43.25;;;;;12.27;79.63;102253.25;5036618;28;45308;-57
2022/01/01 00:17:05;;;;;;;;;60.00;45.00;;;;;12.30;80.09;102250.34;5036216;28;45407;-58
2022/01/01 00:19:31;;;;;;;;;58.50;46.25;;;;;12.31;79.43;102250.22;5036250;28;45261;-58
2022/01/01 00:22:00;;;;;;;;;65.00;49.50;;;;;12.34;79.58;102249.97;5036297;28;45200;-57
2022/01/01 00:24:26;;;;;;;;;60.25;47.00;;;;;12.34;79.71;102249.97;5036537;28;45338;-58
2022/01/01 00:26:51;;;;;;;;;63.25;48.25;;;;;12.37;79.83;102251.56;5036218;28;46286;-58
2022/01/01 00:29:17;;;;;;;;;58.75;41.75;;;;;12.39;79.57;102255.81;5036281;28;45360;-58
2022/01/01 00:31:43;;;;;;;;;59.00;45.75;;;;;12.41;79.31;102247.66;5018573;28;45362;-57
2022/01/01 00:34:08;;;;;;;;;63.75;40.75;;;;;12.41;79.33;102245.84;5036620;28;45399;-58
2022/01/01 00:36:34;;;;;;;;;56.25;45.25;;;;;12.40;79.33;102248.66;5036226;28;45573;-56
2022/01/01 00:38:59;;;;;;;;;57.50;43.25;;;;;12.44;78.98;102236.75;5036399;28;45418;-59
2022/01/01 00:41:24;;;;;;;;;44.75;40.75;;;;;12.44;78.90;102244.78;5039768;28;45434;-58
2022/01/01 00:43:50;;;;;;;;;55.75;40.00;;;;;12.46;79.50;102248.16;5040032;28;45313;-58
2022/01/01 00:46:15;;;;;;;;;53.25;41.75;;;;;12.45;79.11;102244.63;5040042;28;46238;-57
2022/01/01 00:48:41;;;;;;;;;58.00;46.00;;;;;12.43;78.75;102246.59;5039668;28;45323;-58
2022/01/01 00:51:06;;;;;;;;;49.25;39.25;;;;;12.44;79.33;102250.09;5039942;28;46047;-59
2022/01/01 00:53:32;;;;;;;;;46.50;37.75;;;;;12.43;79.50;102259.06;5040123;28;45549;-58
2022/01/01 00:55:58;;;;;;;;;52.00;38.25;;;;;12.46;79.25;102257.00;5039980;28;45413;-58
2022/01/01 00:58:24;;;;;;;;;49.75;40.00;;;;;12.38;79.52;102240.75;5039953;28;45321;-57
2022/01/01 01:00:49;;;;;;;;;46.00;34.75;;;;;12.45;79.44;102257.97;5039674;28;45220;-57
2022/01/01 01:03:16;;;;;;;;;51.75;37.75;;;;;12.47;78.87;102249.84;5040079;28;45212;-57
2022/01/01 01:05:45;;;;;;;;;41.00;35.00;;;;;12.50;78.29;102254.94;5039971;28;45374;-57
2022/01/01 01:08:13;;;;;;;;;41.67;35.67;;;;;12.52;78.61;102246.84;5039337;28;45230;-57
2022/01/01 01:10:40;;;;;;;;;46.50;37.00;;;;;12.41;79.15;102229.84;5039522;28;45410;-58
2022/01/01 01:13:07;;;;;;;;;51.50;40.50;;;;;12.49;79.27;102239.91;5039336;28;45378;-57
2022/01/01 01:15:34;;;;;;;;;54.00;39.25;;;;;12.48;78.89;102244.41;5038703;28;46234;-56
2022/01/01 01:18:00;;;;;;;;;57.00;39.50;;;;;12.42;79.26;102246.69;5039190;28;45354;-57
2022/01/01 01:20:27;;;;;;;;;45.50;37.50;;;;;12.35;79.87;102257.03;5038279;28;45338;-57
2022/01/01 01:22:53;;;;;;;;;45.25;38.25;;;;;12.31;79.72;102250.22;5038319;28;45243;-56
2022/01/01 01:25:21;;;;;;;;;48.75;37.75;;;;;12.34;79.05;102243.78;5037814;28;46203;-57
2022/01/01 01:27:48;;;;;;;;;43.25;37.75;;;;;12.30;79.69;102235.16;5037688;28;45412;-58
2022/01/01 01:30:15;;;;;;;;;45.75;39.50;;;;;12.33;79.35;102239.41;5020239;28;45478;-57
2022/01/01 01:32:41;;;;;;;;;49.00;38.50;;;;;12.35;79.13;102242.84;5037983;28;45320;-58
2022/01/01 01:35:08;;;;;;;;;42.50;38.25;;;;;12.35;79.61;102242.84;5036407;28;45545;-57
2022/01/01 01:37:34;;;;;;;;;46.50;37.00;;;;;12.36;79.30;102233.84;5037075;28;45279;-58
2022/01/01 01:39:59;;;;;;;;;61.75;43.75;;;;;12.33;78.92;102232.25;5037947;28;45311;-59
2022/01/01 01:42:28;;;;;;;;;58.00;45.50;;;;;12.29;79.62;102237.97;5038396;28;45361;-57
2022/01/01 01:44:54;;;;;;;;;51.75;40.00;;;;;12.30;79.25;102239.66;5037668;28;46168;-58
2022/01/01 01:47:35;;;;;;;;;59.75;43.25;;;;;12.30;79.98;102242.31;5037567;28;45372;-58
2022/01/01 01:50:04;;;;;;;;;58.50;41.50;;;;;12.22;79.78;102229.63;5037701;28;45327;-58
2022/01/01 01:52:35;;;;;;;;;59.50;46.50;;;;;12.27;79.62;102239.91;5037661;28;45481;-56
2022/01/01 01:55:04;;;;;;;;;55.50;41.75;;;;;12.26;79.23;102238.19;5037239;28;45404;-56
2022/01/01 01:57:30;;;;;;;;;59.00;45.75;;;;;12.28;79.94;102241.63;5037113;28;45464;-57
2022/01/01 01:59:56;;;;;;;;;62.25;47.25;;;;;12.24;79.61;102249.84;5037539;28;45256;-57
2022/01/01 02:02:22;;;;;;;;;57.00;42.25;;;;;12.24;79.75;102238.34;5037627;28;45219;-57
2022/01/01 02:04:47;;;;;;;;;56.25;41.00;;;;;12.21;79.28;102239.41;5019338;28;46261;-56
2022/01/01 02:07:13;;;;;;;;;56.75;43.75;;;;;12.15;80.14;102237.25;5037521;28;45235;-56
2022/01/01 02:09:39;;;;;;;;;55.75;41.75;;;;;12.15;79.77;102239.06;5037506;28;45311;-57
2022/01/01 02:12:07;;;;;;;;;48.00;37.25;;;;;12.14;79.20;102240.88;5037712;28;45157;-57
2022/01/01 02:17:17;;;;;;;;;47.75;38.25;;;;;12.15;80.01;102237.25;5037017;28;45405;-57
2022/01/01 02:19:50;;;;;;;;;52.75;39.75;;;;;12.16;79.86;102243.41;4998244;28;1125892;-56
2022/01/01 02:22:16;;;;;;;;;54.00;41.00;;;;;12.08;79.62;102232.50;5038951;28;45345;-57
2022/01/01 02:24:42;;;;;;;;;60.00;44.75;;;;;12.03;80.33;102240.03;5038255;28;45405;-57
2022/01/01 02:27:08;;;;;;;;;59.00;43.25;;;;;12.03;80.25;102240.03;5038260;28;45258;-57
2022/01/01 02:29:34;;;;;;;;;50.00;42.25;;;;;12.05;79.84;102236.28;5038392;28;45346;-56
2022/01/01 02:32:00;;;;;;;;;58.00;44.75;;;;;12.01;79.82;102218.81;5038353;28;45433;-57
2022/01/01 02:34:25;;;;;;;;;54.75;40.50;;;;;11.95;79.98;102225.44;5038000;28;46115;-57
2022/01/01 02:36:51;;;;;;;;;36.75;23.00;;;;;11.95;80.01;102228.13;5036550;28;45424;-57
2022/01/01 02:39:19;;;;;;;;;46.50;37.50;;;;;11.93;79.56;102230.06;5038261;28;45239;-57
2022/01/01 02:41:47;;;;;;;;;41.25;37.50;;;;;11.91;80.23;102221.31;5037985;28;45200;-57
2022/01/01 02:44:13;;;;;;;;;42.00;38.00;;;;;11.92;80.65;102211.50;5037776;28;46351;-59
2022/01/01 02:46:39;;;;;;;;;43.50;36.00;;;;;11.89;80.05;102211.75;5037629;28;45354;-56
2022/01/01 02:49:04;;;;;;;;;39.00;31.75;;;;;11.87;80.16;102206.53;5037974;28;45310;-57
2022/01/01 02:51:31;;;;;;;;;38.00;32.00;;;;;11.78;80.94;102188.56;5038254;28;45341;-56
2022/01/01 02:53:57;;;;;;;;;43.00;32.00;;;;;11.88;80.20;102218.03;5037809;28;46288;-56
2022/01/01 02:56:23;;;;;;;;;43.67;36.00;;;;;11.75;80.53;102199.44;5037525;28;45502;-56
2022/01/01 02:58:49;;;;;;;;;28.00;23.00;;;;;11.77;80.55;102216.19;5038072;28;45287;-57
2022/01/01 03:01:14;;;;;;;;;43.00;35.00;;;;;11.82;80.37;102224.69;5037901;28;45184;-58
2022/01/01 03:03:40;;;;;;;;;39.33;29.33;;;;;11.82;80.53;102221.16;5036857;28;46025;-58
2022/01/01 03:06:05;;;;;;;;;39.50;32.50;;;;;11.81;80.58;102227.47;5019793;28;45325;-57
2022/01/01 03:08:31;;;;;;;;;41.00;33.00;;;;;11.81;80.44;102232.81;5037560;28;45995;-56
2022/01/01 03:10:56;;;;;;;;;43.33;35.67;;;;;11.78;80.66;102223.22;5037910;28;45314;-57
2022/01/01 03:13:21;;;;;;;;;44.00;34.50;;;;;11.77;80.77;102228.69;5037379;28;45349;-57
2022/01/01 03:15:47;;;;;;;;;54.00;35.25;;;;;11.75;80.84;102220.78;5037060;28;45366;-57
2022/01/01 03:18:13;;;;;;;;;38.00;31.00;;;;;11.74;80.80;102219.94;5037909;28;45309;-57
2022/01/01 03:20:39;;;;;;;;;44.00;36.67;;;;;11.73;80.67;102223.56;5035541;28;45342;-58
2022/01/01 03:23:04;;;;;;;;;33.67;33.67;;;;;11.67;80.55;102218.72;5037499;28;46203;-58
2022/01/01 03:25:30;;;;;;;;;31.00;28.00;;;;;11.70;80.41;102221.13;5037553;28;45297;-57
2022/01/01 03:27:56;;;;;;;;;28.67;25.67;;;;;11.72;80.61;102229.03;5037721;28;45310;-61
2022/01/01 03:30:21;;;;;;;;;45.33;30.67;;;;;11.39;79.83;102174.66;5037503;28;45206;-56
2022/01/01 03:32:47;;;;;;;;;39.67;33.33;;;;;11.78;80.15;102233.88;5036995;28;46180;-57
2022/01/01 03:35:12;;;;;;;;;32.67;30.00;;;;;11.79;80.08;102235.56;5037132;28;45247;-56
2022/01/01 03:37:38;;;;;;;;;28.67;28.33;;;;;11.80;79.70;102233.75;5037275;28;45610;-57
2022/01/01 03:40:04;;;;;;;;;25.67;22.00;;;;;11.69;80.16;102222.09;5037435;28;45242;-56
2022/01/01 03:42:30;;;;;;;;;35.33;32.33;;;;;11.73;80.14;102230.72;5037147;28;46203;-56
2022/01/01 03:44:55;;;;;;;;;36.67;31.33;;;;;11.65;80.45;102217.97;5036967;28;45193;-56
2022/01/01 03:47:21;;;;;;;;;34.67;29.33;;;;;11.70;80.63;102220.28;5037153;28;45398;-56
2022/01/01 03:49:46;;;;;;;;;39.00;28.33;;;;;11.66;80.17;102208.16;5037268;28;45446;-57
2022/01/01 03:52:12;;;;;;;;;42.00;33.00;;;;;11.70;80.05;102209.63;5036986;28;45435;-56
2022/01/01 03:54:38;;;;;;;;;22.67;20.67;;;;;11.71;80.09;102208.66;5036969;28;45328;-57
2022/01/01 03:57:03;;;;;;;;;36.33;28.67;;;;;11.58;79.99;102191.91;5036853;28;45243;-57
2022/01/01 03:59:29;;;;;;;;;36.33;28.33;;;;;11.62;79.87;102212.03;5037357;28;45348;-56
2022/01/01 04:01:55;;;;;;;;;40.67;33.67;;;;;11.58;80.08;102216.75;5036606;28;46074;-57
2022/01/01 04:04:22;;;;;;;;;36.00;30.00;;;;;11.52;80.03;102222.56;5036510;28;45382;-57
2022/01/01 04:06:48;;;;;;;;;29.67;27.67;;;;;11.51;79.86;102220.88;5036763;28;45333;-56
2022/01/01 04:09:14;;;;;;;;;34.00;30.33;;;;;11.52;79.87;102203.91;5037007;28;45420;-56
2022/01/01 04:11:40;;;;;;;;;36.00;31.67;;;;;11.52;79.84;102208.38;5036773;28;46241;-56
2022/01/01 04:14:05;;;;;;;;;36.67;34.33;;;;;11.55;79.59;102206.34;5034022;28;45290;-57
2022/01/01 04:16:31;;;;;;;;;36.00;25.67;;;;;11.55;79.69;102211.66;5036323;28;45258;-56
2022/01/01 04:18:56;;;;;;;;;38.00;31.00;;;;;11.49;79.98;102204.97;5036838;28;45342;-56
2022/01/01 04:21:22;;;;;;;;;35.33;25.67;;;;;11.44;79.70;102207.13;5036606;28;46089;-57
2022/01/01 04:23:47;;;;;;;;;27.67;25.67;;;;;11.42;80.04;102209.09;5036777;28;45332;-56
2022/01/01 04:26:13;;;;;;;;;33.33;23.67;;;;;11.46;79.96;102212.34;5036700;28;45344;-56
2022/01/01 04:28:40;;;;;;;;;29.33;27.00;;;;;11.45;79.73;102213.31;5037031;28;45428;-56
2022/01/01 04:31:05;;;;;;;;;30.67;26.00;;;;;11.48;79.85;102213.09;5018262;28;46295;-57
2022/01/01 04:33:31;;;;;;;;;35.33;33.00;;;;;11.49;79.71;102202.31;5036493;28;45361;-55
2022/01/01 04:35:56;;;;;;;;;35.67;31.67;;;;;11.52;79.13;102203.91;5036572;28;45171;-57
2022/01/01 04:40:50;;;;;;;;;31.33;29.33;;;;;11.45;79.41;102215.97;5036181;28;46021;-57
2022/01/01 04:43:15;;;;;;;;;34.33;29.67;;;;;11.41;79.32;102209.19;5036443;28;45336;-56
2022/01/01 04:45:40;;;;;;;;;37.00;29.33;;;;;11.35;79.55;102207.84;5036603;28;45175;-56
2022/01/01 04:48:06;;;;;;;;;32.75;26.25;;;;;11.33;79.55;102203.59;5036600;28;45521;-56
2022/01/01 04:50:32;;;;;;;;;32.67;32.67;;;;;11.36;79.27;102208.69;5036212;28;46132;-56
2022/01/01 04:52:58;;;;;;;;;28.25;27.75;;;;;11.27;79.32;102198.72;5036061;28;45334;-56
2022/01/01 04:55:24;;;;;;;;;39.50;32.25;;;;;11.25;79.40;102204.19;5036259;28;45342;-55
2022/01/01 04:57:49;;;;;;;;;35.33;28.67;;;;;11.24;79.08;102197.97;5036347;28;45413;-56
2022/01/01 05:00:15;;;;;;;;;35.25;29.00;;;;;11.18;79.33;102198.47;5035919;28;46025;-55
2022/01/01 05:02:40;;;;;;;;;39.00;31.67;;;;;11.18;79.07;102200.28;5035868;28;45379;-56
2022/01/01 05:05:06;;;;;;;;;38.33;32.67;;;;;11.12;79.52;102201.56;5036282;28;45330;-57
2022/01/01 05:07:31;;;;;;;;;41.00;30.00;;;;;11.07;80.11;102200.22;5036573;28;45362;-55
2022/01/01 05:09:57;;;;;;;;;27.75;20.75;;;;;11.06;80.11;102199.38;5035797;28;45330;-55
2022/01/01 05:12:22;;;;;;;;;34.00;29.00;;;;;11.04;80.19;102211.97;5036070;28;45224;-55
2022/01/01 05:14:47;;;;;;;;;33.33;26.00;;;;;11.05;80.28;102211.00;5036012;28;45161;-55
2022/01/01 05:17:14;;;;;;;;;32.67;28.00;;;;;11.05;80.26;102218.97;5035972;28;45249;-56
2022/01/01 05:19:39;;;;;;;;;37.67;25.33;;;;;10.94;80.50;102217.09;5035851;28;46928;-56
2022/01/01 05:22:05;;;;;;;;;41.33;29.67;;;;;10.86;81.07;102216.81;5036047;28;45204;-55
2022/01/01 05:24:30;;;;;;;;;31.00;25.33;;;;;10.85;81.04;102214.28;5036066;28;45248;-56
2022/01/01 05:26:56;;;;;;;;;29.00;27.00;;;;;10.83;80.86;102205.53;5038636;28;45458;-56
2022/01/01 05:29:21;;;;;;;;;33.33;28.00;;;;;10.87;80.66;102215.88;5039376;28;46173;-56
2022/01/01 05:31:46;;;;;;;;;32.00;26.00;;;;;10.85;80.54;102209.78;5039480;28;45429;-56
2022/01/01 05:34:12;;;;;;;;;36.00;28.33;;;;;10.82;81.01;102222.47;5040273;28;45320;-57
2022/01/01 05:36:37;;;;;;;;;36.33;26.00;;;;;10.72;81.28;102211.66;5040195;28;45418;-55
2022/01/01 05:39:03;;;;;;;;;26.67;23.00;;;;;10.68;81.49;102210.19;5039190;28;46252;-55
2022/01/01 05:41:28;;;;;;;;;31.00;25.33;;;;;10.60;81.45;102199.25;5038916;28;45339;-56
2022/01/01 05:43:53;;;;;;;;;24.33;20.67;;;;;10.64;81.09;102201.56;5039931;28;45303;-56
2022/01/01 05:46:19;;;;;;;;;28.67;24.33;;;;;10.53;81.14;102187.34;5039817;28;45318;-57
2022/01/01 05:48:44;;;;;;;;;22.33;22.33;;;;;10.63;81.30;102199.88;5038892;28;45481;-56
2022/01/01 05:51:10;;;;;;;;;26.00;23.00;;;;;10.62;81.09;102199.97;5039102;28;45310;-57
2022/01/01 05:53:36;;;;;;;;;25.67;22.67;;;;;10.58;81.18;102193.19;5039315;28;45479;-56
2022/01/01 05:56:01;;;;;;;;;31.33;23.67;;;;;10.56;81.36;102198.59;5039868;28;45414;-57
2022/01/01 05:58:27;;;;;;;;;21.00;20.00;;;;;10.51;81.09;102197.25;5038838;28;45465;-57
2022/01/01 06:00:52;;;;;;;;;17.00;17.00;;;;;10.47;80.67;102185.97;5039630;28;45394;-57
2022/01/01 06:03:18;;;;;;;;;27.33;19.00;;;;;10.45;80.90;102193.22;5039438;28;45160;-56
2022/01/01 06:05:44;;;;;;;;;23.67;23.67;;;;;10.36;81.26;102175.25;5021486;28;45353;-58
2022/01/01 06:08:09;;;;;;;;;25.67;21.33;;;;;10.40;81.05;102188.22;5038521;28;46456;-57
2022/01/01 06:10:35;;;;;;;;;20.67;17.67;;;;;10.38;81.21;102187.50;5038671;28;45394;-56
2022/01/01 06:13:00;;;;;;;;;22.67;21.00;;;;;10.41;81.10;102186.44;5038931;28;45326;-56
2022/01/01 06:15:25;;;;;;;;;19.67;16.33;;;;;10.37;81.31;102185.78;5038935;28;45453;-55
2022/01/01 06:17:51;;;;;;;;;28.00;20.00;;;;;10.36;81.73;102188.53;5038202;28;45413;-56
2022/01/01 06:20:16;;;;;;;;;21.00;19.00;;;;;10.34;81.61;102190.47;5038211;28;45300;-56
2022/01/01 06:22:42;;;;;;;;;25.00;19.67;;;;;10.33;81.42;102191.44;5038449;28;45821;-56
2022/01/01 06:25:09;;;;;;;;;25.67;20.67;;;;;10.28;81.67;102190.91;5038619;28;45391;-56
2022/01/01 06:27:34;;;;;;;;;18.00;18.00;;;;;10.26;81.22;102193.69;5038136;28;46470;-57
2022/01/01 06:30:00;;;;;;;;;18.00;15.00;;;;;10.30;80.40;102191.66;5038050;28;45506;-57
2022/01/01 06:32:25;;;;;;;;;26.67;21.00;;;;;10.24;81.32;102196.47;5038258;28;45425;-56
2022/01/01 06:34:51;;;;;;;;;17.33;11.00;;;;;10.20;81.46;102196.75;5038675;28;45307;-57
2022/01/01 06:37:16;;;;;;;;;19.67;16.67;;;;;10.12;81.01;102191.97;5036922;28;47021;-56
2022/01/01 06:39:42;;;;;;;;;22.67;15.00;;;;;10.06;81.65;102197.72;5038128;28;45323;-57
2022/01/01 06:42:07;;;;;;;;;26.67;19.00;;;;;10.01;82.35;102197.19;5038236;28;45236;-56
2022/01/01 06:44:33;;;;;;;;;20.33;19.67;;;;;9.99;81.96;102189.34;5038370;28;45498;-56
2022/01/01 06:46:59;;;;;;;;;21.33;16.00;;;;;10.04;81.72;102188.16;5037931;28;45244;-56
2022/01/01 06:49:24;;;;;;;;;21.67;20.67;;;;;10.02;82.06;102185.59;5037420;28;45346;-57
2022/01/01 06:51:49;;;;;;;;;26.67;22.00;;;;;10.01;82.18;102181.22;5038092;28;45605;-56
2022/01/01 06:54:15;;;;;;;;;21.00;18.00;;;;;9.97;82.14;102195.69;5038225;28;45312;-56
2022/01/01 06:56:40;;;;;;;;;29.67;22.00;;;;;9.99;82.80;102189.34;5037894;28;45295;-56
2022/01/01 06:59:06;;;;;;;;;24.33;18.33;;;;;9.98;82.59;102179.63;5037874;28;45560;-56
2022/01/01 07:01:31;;;;;;;;;21.67;16.00;;;;;10.02;82.40;102180.28;5038104;28;45392;-56
2022/01/01 07:03:57;;;;;;;;;32.33;20.33;;;;;10.06;82.25;102179.09;5037959;28;45402;-56
2022/01/01 07:06:22;;;;;;;;;22.67;18.67;;;;;10.08;81.93;102182.50;5037552;28;46005;-56
2022/01/01 07:08:48;;;;;;;;;25.33;20.00;;;;;10.08;81.79;102179.00;5037770;28;45456;-56
2022/01/01 07:11:13;;;;;;;;;24.00;20.00;;;;;10.00;81.76;102164.44;5037723;28;45669;-57
2022/01/01 07:13:39;;;;;;;;;21.33;20.00;;;;;10.04;81.87;102175.72;5020114;28;45435;-57
2022/01/01 07:16:06;;;;;;;;;27.67;20.33;;;;;10.01;81.60;102181.22;5037373;28;46161;-56
2022/01/01 07:18:31;;;;;;;;;30.67;23.00;;;;;10.00;82.49;102188.38;5037294;28;45472;-56
2022/01/01 07:20:56;;;;;;;;;26.00;21.00;;;;;10.02;82.23;102188.25;5037553;28;45687;-56
2022/01/01 07:23:22;;;;;;;;;29.67;26.00;;;;;9.99;81.78;102188.47;5037763;28;45247;-56
2022/01/01 07:25:47;;;;;;;;;32.67;25.00;;;;;10.00;82.41;102188.38;5037417;28;45240;-56
2022/01/01 07:28:16;;;;;;;;;25.67;20.00;;;;;10.00;82.27;102185.72;5037466;28;45298;-55
2022/01/01 07:30:42;;;;;;;;;22.67;17.00;;;;;10.02;81.61;102182.94;5037557;28;45441;-57
2022/01/01 07:33:07;;;;;;;;;29.00;20.67;;;;;9.99;82.01;102184.00;5037237;28;45487;-56
2022/01/01 07:35:36;;;;;;;;;23.33;20.00;;;;;9.98;81.72;102178.78;5037181;28;45393;-56
2022/01/01 07:38:02;;;;;;;;;29.00;22.33;;;;;9.93;81.68;102175.59;5037230;28;45291;-57
2022/01/01 07:40:28;;;;;;;;;26.00;20.33;;;;;9.88;81.75;102191.03;5037320;28;45442;-57
2022/01/01 07:42:54;;;;;;;;;17.00;17.00;;;;;9.87;81.48;102195.50;5037509;28;45406;-57
2022/01/01 07:45:19;;;;;;;;;24.75;19.75;;;;;9.86;82.27;102184.94;5037078;28;46487;-57
2022/01/01 07:47:45;;;;;;;;;19.00;17.00;;;;;9.80;81.48;102186.25;5037096;28;45299;-57
2022/01/01 07:50:10;;;;;;;;;19.67;16.33;;;;;9.82;81.62;102188.78;5036691;28;45181;-58
2022/01/01 07:52:36;;;;;;;;;26.00;20.00;;;;;9.77;81.40;102191.75;5037306;28;45459;-58
2022/01/01 07:55:01;;;;;;;;;21.67;19.67;;;;;9.71;82.24;102187.72;5036918;28;45358;-57
2022/01/01 07:57:26;;;;;;;;;18.00;17.00;;;;;9.67;82.31;102182.72;5019102;28;45420;-56
2022/01/01 07:59:52;;;;;;;;;16.67;12.00;;;;;9.66;82.21;102183.69;5037021;28;45341;-57
2022/01/01 08:02:17;;;;;;;;;24.33;22.00;;;;;9.67;82.07;102188.91;5037059;28;45290;-57
2022/01/01 08:04:42;;;;;;;;;15.00;15.00;;;;;9.69;81.53;102191.44;5036578;28;45471;-57
2022/01/01 08:07:08;;;;;;;;;23.67;20.00;;;;;9.66;82.21;102187.19;5036792;28;45298;-57
2022/01/01 08:09:35;;;;;;;;;20.33;16.67;;;;;9.68;81.85;102198.56;5037127;28;45408;-58
2022/01/01 08:12:00;;;;;;;;;28.00;23.33;;;;;9.68;82.73;102195.91;5037159;28;45387;-56
2022/01/01 08:14:27;;;;;;;;;29.00;19.67;;;;;9.66;81.92;102194.31;5036608;28;46062;-58
2022/01/01 08:17:04;;;;;;;;;21.33;18.67;;;;;9.66;82.27;102202.31;5036589;28;45553;-57
2022/01/01 08:19:30;;;;;;;;;25.33;22.33;;;;;9.63;81.73;102192.72;5036414;28;45461;-57
2022/01/01 08:21:56;;;;;;;;;30.00;20.25;;;;;9.71;81.82;102195.69;5036807;28;45183;-56
2022/01/01 08:24:23;;;;;;;;;29.25;22.00;;;;;9.79;81.73;102191.69;5036268;28;47354;-56
2022/01/01 08:26:49;;;;;;;;;28.50;23.00;;;;;9.85;81.57;102173.47;5036431;28;45275;-57
2022/01/01 08:29:15;;;;;;;;;27.00;22.33;;;;;9.85;80.97;102154.88;5036827;28;45427;-56
2022/01/01 08:31:41;;;;;;;;;24.67;20.33;;;;;10.01;80.69;102173.25;5036686;28;45345;-56
2022/01/01 08:34:06;;;;;;;;;25.00;19.67;;;;;10.03;80.98;102178.47;5036140;28;46378;-57
2022/01/01 08:36:32;;;;;;;;;29.00;19.67;;;;;10.02;80.78;102182.09;5036524;28;45455;-56
2022/01/01 08:38:57;;;;;;;;;28.00;24.00;;;;;10.02;80.45;102182.09;5036432;28;45865;-57
2022/01/01 08:41:22;;;;;;;;;28.00;18.67;;;;;9.98;80.73;102178.78;5036733;28;45207;-56
2022/01/01 08:43:48;;;;;;;;;16.00;11.67;;;;;10.00;81.05;102171.56;5036435;28;45307;-57
2022/01/01 08:46:13;;;;;;;;;21.00;19.33;;;;;10.02;80.98;102176.75;5036207;28;45233;-58
2022/01/01 08:48:40;;;;;;;;;24.25;19.00;;;;;10.07;80.77;102175.50;5036507;28;45368;-56
2022/01/01 08:51:33;;;;;;;;;29.67;22.67;;;;;10.14;80.19;102174.09;5036542;28;45220;-56
2022/01/01 08:53:58;;;;;;;;;25.00;20.33;;;;;10.19;80.09;102173.75;5032169;28;46112;-56
2022/01/01 08:56:24;;;;;;;;;23.50;22.00;;;;;10.24;79.81;102164.53;5036089;28;45366;-57
2022/01/01 08:58:49;;;;;;;;;25.33;20.33;;;;;10.32;79.99;102168.44;5036176;28;45274;-58
2022/01/01 09:01:15;;;;;;;;;33.50;24.00;;;;;10.34;79.44;102164.72;5037840;28;45437;-57
2022/01/01 09:03:41;;;;;;;;;20.67;18.33;;;;;10.33;79.45;102160.38;5039528;28;46404;-57
2022/01/01 09:06:08;;;;;;;;;23.33;20.00;;;;;10.39;79.30;102164.41;5039046;28;45223;-56
2022/01/01 09:08:36;;;;;;;;;23.00;20.00;;;;;10.33;79.09;102159.53;5039767;28;45405;-56
2022/01/01 09:11:02;;;;;;;;;23.00;19.33;;;;;10.40;78.97;102158.09;5039996;28;45337;-57
2022/01/01 09:13:27;;;;;;;;;18.00;18.00;;;;;10.64;78.61;102187.41;5039414;28;46769;-59
2022/01/01 09:15:53;;;;;;;;;21.00;17.50;;;;;10.73;77.93;102182.25;5039371;28;45247;-57
2022/01/01 09:18:18;;;;;;;;;21.00;18.00;;;;;10.83;77.87;102178.91;5039425;28;45453;-58
2022/01/01 09:20:44;;;;;;;;;25.67;15.00;;;;;11.04;77.30;102156.03;5039124;28;45536;-58
2022/01/01 09:23:09;;;;;;;;;23.00;21.33;;;;;11.35;76.00;102156.38;5039204;28;47146;-58
2022/01/01 09:25:36;;;;;;;;;24.00;18.33;;;;;11.66;75.18;102144.19;5039282;28;45431;-56
2022/01/01 09:28:02;;;;;;;;;20.33;15.67;;;;;11.99;73.89;102152.25;5039473;28;45212;-58
2022/01/01 09:30:27;;;;;;;;;17.00;16.00;;;;;12.36;73.30;102143.13;5039609;28;45446;-56
2022/01/01 09:32:53;;;;;;;;;20.33;17.00;;;;;12.67;71.85;102136.97;5038958;28;45425;-57
2022/01/01 09:35:18;;;;;;;;;19.67;14.67;;;;;12.97;72.13;102135.38;5038960;28;45421;-57
2022/01/01 09:37:44;;;;;;;;;20.33;14.00;;;;;13.35;70.38;102128.66;5039166;28;45328;-57
2022/01/01 09:40:10;;;;;;;;;23.67;20.00;;;;;13.91;66.97;102128.28;5039378;28;45396;-57
2022/01/01 09:42:39;;;;;;;;;14.67;13.33;;;;;14.53;69.01;102124.50;5038976;28;46394;-57
2022/01/01 09:45:06;;;;;;;;;19.67;15.33;;;;;14.45;66.35;102121.66;5038973;28;45304;-55
2022/01/01 09:47:32;;;;;;;;;12.67;12.00;;;;;14.89;64.16;102125.69;5039166;28;45204;-55
2022/01/01 09:49:57;;;;;;;;;19.00;15.00;;;;;15.75;61.85;102108.75;5038990;28;45362;-54
2022/01/01 09:52:23;;;;;;;;;15.00;14.33;;;;;16.56;59.75;102116.91;5038787;28;45986;-56
2022/01/01 09:54:48;;;;;;;;;15.67;12.67;;;;;17.51;57.24;102121.59;5038723;28;45345;-54
2022/01/01 09:57:14;;;;;;;;;15.00;12.67;;;;;18.10;56.93;102121.75;5038908;28;45450;-54
2022/01/01 09:59:40;;;;;;;;;20.33;18.67;;;;;18.60;52.06;102113.66;5039095;28;45291;-55
2022/01/01 10:02:06;;;;;;;;;23.00;16.33;;;;;19.42;53.62;102110.97;5038550;28;46163;-54
2022/01/01 10:04:43;;;;;;;;;16.33;13.00;;;;;19.68;52.21;102091.88;5038537;28;45334;-56
2022/01/01 10:07:09;;;;;;;;;15.33;13.33;;;;;20.21;48.72;102101.09;5020901;28;45476;-55
2022/01/01 10:09:37;;;;;;;;;11.67;11.67;;;;;20.86;47.25;102091.75;5038870;28;45203;-53
2022/01/01 10:12:06;;;;;;;;;18.00;14.00;;;;;21.53;45.91;102097.22;5038257;28;46346;-55
2022/01/01 10:14:37;;;;;;;;;18.00;13.67;;;;;21.86;45.28;102104.94;5019883;28;45298;-55
2022/01/01 10:17:22;;;;;;;;;13.67;13.67;;;;;22.25;47.14;102106.50;5038332;28;45475;-55
2022/01/01 10:19:51;;;;;;;;;16.00;13.75;;;;;21.94;44.14;102096.72;5037012;28;45562;-53
2022/01/01 10:22:18;;;;;;;;;12.75;12.00;;;;;21.58;45.37;102111.03;5037804;28;46232;-54
2022/01/01 10:28:08;;;;;;;;;16.75;13.50;;;;;20.68;46.42;102102.84;5038168;28;45295;-55
2022/01/01 10:30:34;;;;;;;;;10.00;8.00;;;;;20.37;48.45;102092.06;5036127;28;45422;-53
2022/01/01 10:33:00;;;;;;;;;11.25;9.75;;;;;20.45;49.46;102105.50;5037883;28;47083;-54
2022/01/01 10:35:25;;;;;;;;;12.00;12.00;;;;;20.74;46.05;102098.59;5038060;28;45215;-54
2022/01/01 10:37:51;;;;;;;;;15.25;12.00;;;;;20.44;46.38;102103.84;5038085;28;45391;-56
2022/01/01 10:40:27;;;;;;;;;14.00;11.75;;;;;20.78;48.12;102108.88;5038280;28;45249;-55
2022/01/01 10:42:52;;;;;;;;;12.50;8.25;;;;;20.90;48.02;102109.28;5037954;28;45612;-55
2022/01/01 10:45:34;;;;;;;;;12.25;11.00;;;;;19.75;48.65;102094.72;5038028;28;45378;-57
2022/01/01 10:48:40;;;;;;;;;9.00;8.75;;;;;18.80;50.37;102113.38;5037974;28;45256;-57
2022/01/01 10:51:07;;;;;;;;;14.33;10.67;;;;;18.40;51.03;102094.22;5038006;28;45340;-57
2022/01/01 10:53:34;;;;;;;;;15.75;12.75;;;;;19.02;48.83;102103.75;5037966;28;46445;-56
2022/01/01 10:56:02;;;;;;;;;12.33;9.67;;;;;19.47;49.39;102097.81;5038150;28;45430;-55
2022/01/01 10:58:34;;;;;;;;;13.75;10.50;;;;;19.13;48.72;102100.72;5038062;28;45287;-57
2022/01/01 11:01:05;;;;;;;;;9.75;9.50;;;;;18.92;50.85;102106.66;5037609;28;45336;-56
2022/01/01 11:03:43;;;;;;;;;14.00;12.25;;;;;19.54;50.85;102108.75;5037344;28;46276;-56
2022/01/01 11:06:17;;;;;;;;;11.00;11.00;;;;;19.53;48.99;102101.66;5037476;28;45377;-55
2022/01/01 11:08:45;;;;;;;;;11.33;11.33;;;;;19.15;49.84;102098.69;5037987;28;45379;-57
2022/01/01 11:11:13;;;;;;;;;13.67;12.00;;;;;19.00;50.80;102105.78;5037708;28;45334;-57
2022/01/01 11:13:40;;;;;;;;;11.67;9.33;;;;;19.55;51.71;102099.63;5037463;28;45355;-57